Time;durP1;ratioP1;P1;durP2;ratioP2;P2;SDS_P1;SDS_P2;PMS_P1;PMS_P2;Temp;Humidity;BMP_temperature;BMP_pressure;BME280_temperature;BME280_humidity;BME280_pressure;Samples;Min_cycle;Max_cycle;Signal;HPM_P1;HPM_P2
2023/12/09 00:02:18;;;;;;;15.33;13.50;;;6.60;99.90;;;;;;5041853;28;20184;-65
2023/12/09 00:04:44;;;;;;;16.00;13.30;;;6.60;99.90;;;;;;5053537;22;20644;-67
2023/12/09 00:07:09;;;;;;;19.23;15.57;;;6.60;99.90;;;;;;5069755;28;20188;-67
2023/12/09 00:09:35;;;;;;;22.00;13.60;;;6.60;99.90;;;;;;5053747;28;20235;-67
2023/12/09 00:12:00;;;;;;;17.80;13.67;;;6.60;99.90;;;;;;5053621;28;20182;-66
2023/12/09 00:14:26;;;;;;;17.27;13.83;;;6.60;99.90;;;;;;5076836;28;20285;-67
2023/12/09 00:16:51;;;;;;;15.37;13.27;;;6.50;99.90;;;;;;5057181;28;20182;-67
2023/12/09 00:19:17;;;;;;;15.27;13.43;;;6.50;99.90;;;;;;5055455;28;20626;-67
2023/12/09 00:21:42;;;;;;;16.57;13.07;;;6.40;99.90;;;;;;5060583;28;20201;-67
2023/12/09 00:24:08;;;;;;;17.30;12.23;;;6.40;99.90;;;;;;5056046;28;20209;-67
2023/12/09 00:26:33;;;;;;;15.67;12.87;;;6.50;99.90;;;;;;5066590;28;20220;-67
2023/12/09 00:28:59;;;;;;;15.63;11.50;;;6.50;99.90;;;;;;5073321;28;20165;-67
2023/12/09 00:31:25;;;;;;;17.67;13.17;;;6.50;99.90;;;;;;5041644;28;20209;-67
2023/12/09 00:33:50;;;;;;;23.03;12.80;;;6.60;99.90;;;;;;5047198;28;20217;-67
2023/12/09 00:36:16;;;;;;;19.17;13.60;;;6.50;99.90;;;;;;5058513;28;20508;-67
2023/12/09 00:38:41;;;;;;;18.13;13.90;;;6.50;99.90;;;;;;5055940;28;20184;-67
2023/12/09 00:41:07;;;;;;;15.33;13.73;;;6.50;99.90;;;;;;5054926;28;20647;-67
2023/12/09 00:43:32;;;;;;;15.87;12.53;;;6.50;99.90;;;;;;5058403;28;20252;-67
2023/12/09 00:45:58;;;;;;;15.67;14.17;;;6.50;99.90;;;;;;5053418;28;20204;-67
2023/12/09 00:48:23;;;;;;;15.60;13.40;;;6.40;99.90;;;;;;5056573;28;20169;-67
2023/12/09 00:50:49;;;;;;;14.43;12.30;;;6.50;99.90;;;;;;5060638;28;20181;-67
2023/12/09 00:53:14;;;;;;;16.20;12.83;;;6.40;99.90;;;;;;5049453;28;20181;-67
2023/12/09 00:55:40;;;;;;;15.07;12.53;;;6.40;99.90;;;;;;5057756;28;20219;-67
2023/12/09 00:58:05;;;;;;;17.13;15.20;;;6.30;99.90;;;;;;5059174;28;20653;-67
2023/12/09 01:00:31;;;;;;;17.77;14.27;;;6.20;99.90;;;;;;5049963;28;20189;-67
2023/12/09 01:02:56;;;;;;;16.30;13.83;;;6.10;99.90;;;;;;5055652;28;20174;-67
2023/12/09 01:05:22;;;;;;;14.83;13.33;;;6.00;99.90;;;;;;5058302;28;20217;-67
2023/12/09 01:07:47;;;;;;;15.10;13.30;;;6.00;99.90;;;;;;5051259;28;20182;-67
2023/12/09 01:10:13;;;;;;;19.30;13.63;;;6.00;99.90;;;;;;5053293;28;20185;-67
2023/12/09 01:12:38;;;;;;;16.37;13.60;;;6.00;99.90;;;;;;5060859;28;20190;-67
2023/12/09 01:15:05;;;;;;;18.60;13.47;;;6.10;99.90;;;;;;5049421;28;20718;-67
2023/12/09 01:17:30;;;;;;;15.60;12.50;;;6.20;99.90;;;;;;5059728;28;20720;-67
2023/12/09 01:19:56;;;;;;;17.60;13.13;;;6.20;99.90;;;;;;5059517;28;20431;-67
2023/12/09 01:22:21;;;;;;;19.73;15.27;;;6.30;99.90;;;;;;5052027;28;20169;-67
2023/12/09 01:24:47;;;;;;;15.80;13.30;;;6.30;99.90;;;;;;5051304;28;20693;-67
2023/12/09 01:27:12;;;;;;;14.93;13.43;;;6.30;99.90;;;;;;5060101;28;20185;-67
2023/12/09 01:29:38;;;;;;;13.50;11.20;;;6.20;99.90;;;;;;5051429;28;20659;-67
2023/12/09 01:32:03;;;;;;;15.97;12.90;;;6.20;99.90;;;;;;5051915;28;20228;-67
2023/12/09 01:34:29;;;;;;;15.70;13.43;;;6.20;99.90;;;;;;5046986;28;20339;-67
2023/12/09 01:36:55;;;;;;;18.80;14.17;;;6.20;99.90;;;;;;5056538;28;20184;-67
2023/12/09 01:39:20;;;;;;;18.53;12.93;;;6.20;99.90;;;;;;5055423;28;20184;-67
2023/12/09 01:41:46;;;;;;;15.80;14.20;;;6.30;99.90;;;;;;5056683;28;20184;-67
2023/12/09 01:44:11;;;;;;;18.67;14.67;;;6.30;99.90;;;;;;5050091;28;20717;-67
2023/12/09 01:46:38;;;;;;;16.63;14.90;;;6.40;99.90;;;;;;5059855;28;20245;-67
2023/12/09 01:49:04;;;;;;;14.20;12.27;;;6.40;99.90;;;;;;5059809;28;20197;-67
2023/12/09 01:51:29;;;;;;;16.73;13.73;;;6.40;99.90;;;;;;5059535;28;20914;-67
2023/12/09 01:53:55;;;;;;;14.00;12.20;;;6.40;99.90;;;;;;5051067;28;20499;-67
2023/12/09 01:56:21;;;;;;;14.30;12.73;;;6.50;99.90;;;;;;5048979;28;20220;-67
2023/12/09 01:58:47;;;;;;;16.90;13.87;;;6.60;99.90;;;;;;5059933;28;20205;-67
2023/12/09 02:01:13;;;;;;;16.20;11.00;;;6.50;99.90;;;;;;5050735;28;20420;-67
2023/12/09 02:03:39;;;;;;;17.07;13.67;;;6.50;99.90;;;;;;5050697;28;20188;-67
2023/12/09 02:06:05;;;;;;;18.27;13.70;;;6.50;99.90;;;;;;5050134;28;20471;-67
2023/12/09 02:08:30;;;;;;;17.47;13.43;;;6.40;99.90;;;;;;5054076;28;20424;-67
2023/12/09 02:11:17;;;;;;;19.27;13.33;;;6.30;99.90;;;;;;5050376;28;20258;-67
2023/12/09 02:14:10;;;;;;;18.60;11.77;;;6.40;99.90;;;;;;5054609;28;20870;-67
2023/12/09 02:16:48;;;;;;;14.10;11.77;;;6.40;99.90;;;;;;5046785;28;20435;-67
2023/12/09 02:19:14;;;;;;;14.40;11.93;;;6.50;99.90;;;;;;5063384;28;20424;-67
2023/12/09 02:22:03;;;;;;;16.17;11.93;;;6.60;99.90;;;;;;5059032;28;21020;-67
2023/12/09 02:24:29;;;;;;;18.67;11.13;;;6.60;99.90;;;;;;5052949;28;20797;-67
2023/12/09 02:27:19;;;;;;;12.90;11.07;;;6.70;99.90;;;;;;5050639;28;20435;-67
2023/12/09 02:29:50;;;;;;;13.63;11.70;;;6.70;99.90;;;;;;5028213;28;20427;-67
2023/12/09 02:32:19;;;;;;;12.77;11.57;;;6.70;99.90;;;;;;5053195;28;20544;-67
2023/12/09 02:34:46;;;;;;;16.20;10.20;;;6.70;99.90;;;;;;5054973;28;20839;-67
2023/12/09 02:37:13;;;;;;;12.67;11.20;;;6.70;99.90;;;;;;5048311;28;20432;-67
2023/12/09 02:39:39;;;;;;;16.40;12.07;;;6.70;99.90;;;;;;5055651;28;20482;-67
2023/12/09 02:42:06;;;;;;;11.83;9.90;;;6.60;99.90;;;;;;5059845;28;20797;-67
2023/12/09 02:44:32;;;;;;;16.57;10.80;;;6.60;99.90;;;;;;5055695;28;20462;-67
2023/12/09 02:46:57;;;;;;;10.77;9.20;;;6.70;99.90;;;;;;5055206;28;20936;-67
2023/12/09 02:49:23;;;;;;;11.30;10.10;;;6.70;99.90;;;;;;5061941;28;20443;-67
2023/12/09 02:51:49;;;;;;;11.83;9.03;;;6.60;99.90;;;;;;5061864;28;20279;-67
2023/12/09 02:54:15;;;;;;;12.30;9.43;;;6.60;99.90;;;;;;5063167;28;20289;-67
2023/12/09 02:56:40;;;;;;;11.53;8.87;;;6.60;99.90;;;;;;5050903;28;20446;-67
2023/12/09 02:59:06;;;;;;;10.83;7.93;;;6.60;99.90;;;;;;5055320;28;20174;-67
2023/12/09 03:01:31;;;;;;;11.10;8.73;;;6.60;99.90;;;;;;5060113;28;20666;-67
2023/12/09 03:03:57;;;;;;;11.70;9.03;;;6.60;99.90;;;;;;5061821;28;20174;-67
2023/12/09 03:06:22;;;;;;;11.30;9.43;;;6.60;99.90;;;;;;5057822;28;20762;-67
2023/12/09 03:08:48;;;;;;;12.30;8.57;;;6.60;99.90;;;;;;5056364;28;20193;-67
2023/12/09 03:11:14;;;;;;;10.30;7.70;;;6.60;99.90;;;;;;5062805;28;20227;-67
2023/12/09 03:13:39;;;;;;;13.70;7.73;;;6.70;99.90;;;;;;5048564;28;20814;-67
2023/12/09 03:16:05;;;;;;;10.03;7.30;;;6.60;99.90;;;;;;5054850;28;20224;-67
2023/12/09 03:18:31;;;;;;;9.50;7.87;;;6.60;99.90;;;;;;5051551;28;20165;-67
2023/12/09 03:20:56;;;;;;;15.83;6.97;;;6.60;99.90;;;;;;5058135;28;20185;-67
2023/12/09 03:23:22;;;;;;;12.47;7.73;;;6.60;99.90;;;;;;5061443;28;20173;-67
2023/12/09 03:25:47;;;;;;;10.07;7.33;;;6.60;99.90;;;;;;5054072;28;20189;-67
2023/12/09 03:28:13;;;;;;;9.23;8.33;;;6.70;99.90;;;;;;5053273;28;20177;-67
2023/12/09 03:30:38;;;;;;;12.83;7.97;;;6.60;99.90;;;;;;5058297;28;20166;-67
2023/12/09 03:33:04;;;;;;;11.80;9.00;;;6.50;99.90;;;;;;5047298;28;20519;-67
2023/12/09 03:35:29;;;;;;;9.50;8.60;;;6.40;99.90;;;;;;5057757;28;20284;-67
2023/12/09 03:37:55;;;;;;;10.23;6.50;;;6.40;99.90;;;;;;5053538;28;20178;-67
2023/12/09 03:40:20;;;;;;;12.73;8.37;;;6.30;99.90;;;;;;5056417;28;20658;-67
2023/12/09 03:42:46;;;;;;;8.70;6.27;;;6.30;99.90;;;;;;5049387;28;20174;-67
2023/12/09 03:45:11;;;;;;;11.80;6.53;;;6.20;99.90;;;;;;5049241;28;20263;-67
2023/12/09 03:47:37;;;;;;;7.30;6.50;;;6.10;99.90;;;;;;5060567;28;20205;-67
2023/12/09 03:50:02;;;;;;;8.13;6.40;;;6.10;99.90;;;;;;5052940;28;20260;-67
2023/12/09 03:52:28;;;;;;;8.90;7.47;;;6.00;99.90;;;;;;5055494;28;20212;-67
2023/12/09 03:54:53;;;;;;;10.80;6.63;;;5.90;99.90;;;;;;5055083;28;20204;-67
2023/12/09 03:57:19;;;;;;;10.57;7.80;;;5.90;99.90;;;;;;5059956;28;20177;-67
2023/12/09 03:59:44;;;;;;;11.10;6.90;;;5.80;99.90;;;;;;5050114;28;20173;-67
2023/12/09 04:02:10;;;;;;;17.07;7.73;;;5.80;99.90;;;;;;5063264;28;20184;-67
2023/12/09 04:04:40;;;;;;;7.70;6.40;;;5.80;99.90;;;;;;5057941;28;20204;-67
2023/12/09 04:07:06;;;;;;;8.20;7.10;;;5.70;99.90;;;;;;5056473;28;20239;-67
2023/12/09 04:09:31;;;;;;;10.17;7.10;;;5.70;99.90;;;;;;5055342;28;20439;-67
2023/12/09 04:11:57;;;;;;;11.83;7.43;;;5.60;99.90;;;;;;5061889;28;20234;-67
2023/12/09 04:14:22;;;;;;;14.70;8.73;;;5.60;99.90;;;;;;5035148;28;20209;-67
2023/12/09 04:16:48;;;;;;;11.53;8.23;;;5.60;99.90;;;;;;5057139;28;20173;-67
2023/12/09 04:19:13;;;;;;;14.70;7.53;;;5.50;99.90;;;;;;5047932;28;20186;-67
2023/12/09 04:21:39;;;;;;;12.70;8.07;;;5.50;99.90;;;;;;5054851;28;20265;-67
2023/12/09 04:24:05;;;;;;;11.90;8.30;;;5.50;99.90;;;;;;5059362;28;20177;-67
2023/12/09 04:26:30;;;;;;;11.13;8.50;;;5.50;99.90;;;;;;5063240;28;20209;-67
2023/12/09 04:28:56;;;;;;;9.90;8.43;;;5.60;99.90;;;;;;5056055;28;20206;-67
2023/12/09 04:31:21;;;;;;;13.23;7.77;;;5.60;99.90;;;;;;5056023;28;20757;-67
2023/12/09 04:33:47;;;;;;;11.50;8.47;;;5.70;99.90;;;;;;5058072;28;20197;-67
2023/12/09 04:36:13;;;;;;;10.60;8.30;;;5.70;99.90;;;;;;5056343;28;20677;-67
2023/12/09 04:38:39;;;;;;;8.90;6.33;;;5.70;99.90;;;;;;5050212;28;20650;-67
2023/12/09 04:41:04;;;;;;;10.47;7.57;;;5.70;99.90;;;;;;5050298;28;20474;-67
2023/12/09 04:43:30;;;;;;;10.03;7.63;;;5.80;99.90;;;;;;5057226;28;20176;-67
2023/12/09 04:45:55;;;;;;;13.20;9.03;;;5.80;99.90;;;;;;5054495;28;20201;-67
2023/12/09 04:48:21;;;;;;;10.47;8.13;;;5.80;99.90;;;;;;5061484;28;20239;-67
2023/12/09 04:50:47;;;;;;;14.53;8.00;;;5.80;99.90;;;;;;5052695;28;20205;-67
2023/12/09 04:53:12;;;;;;;13.90;8.00;;;5.90;99.90;;;;;;5059785;28;20547;-67
2023/12/09 04:55:38;;;;;;;6.43;5.83;;;5.90;99.90;;;;;;5052920;28;20288;-67
2023/12/09 04:58:03;;;;;;;10.03;7.53;;;6.00;99.90;;;;;;5052353;28;20635;-67
2023/12/09 05:00:29;;;;;;;12.93;6.97;;;6.00;99.90;;;;;;5050810;28;20179;-67
2023/12/09 05:02:54;;;;;;;8.07;6.80;;;6.00;99.90;;;;;;5060164;28;20264;-67
2023/12/09 05:05:20;;;;;;;10.13;7.40;;;5.90;99.90;;;;;;5049544;28;20213;-67
2023/12/09 05:07:45;;;;;;;13.30;7.33;;;5.90;99.90;;;;;;5058247;28;20173;-67
2023/12/09 05:10:12;;;;;;;9.50;7.13;;;6.00;99.90;;;;;;5065050;28;20177;-67
2023/12/09 05:12:39;;;;;;;10.17;6.57;;;6.00;99.90;;;;;;5061110;28;20170;-67
2023/12/09 05:15:05;;;;;;;13.17;7.10;;;6.00;99.90;;;;;;5062306;28;20463;-67
2023/12/09 05:17:31;;;;;;;10.07;6.60;;;6.00;99.90;;;;;;5051434;28;20427;-67
2023/12/09 05:19:57;;;;;;;7.60;6.20;;;6.00;99.90;;;;;;5049142;28;20937;-67
2023/12/09 05:22:23;;;;;;;9.07;5.93;;;6.00;99.90;;;;;;5053434;28;20168;-67
2023/12/09 05:24:49;;;;;;;7.87;5.40;;;6.00;99.90;;;;;;5054008;28;20447;-67
2023/12/09 05:27:14;;;;;;;7.57;6.10;;;6.00;99.90;;;;;;5050273;28;20705;-67
2023/12/09 05:29:40;;;;;;;9.73;6.07;;;6.00;99.90;;;;;;5051345;28;20186;-67
2023/12/09 05:32:06;;;;;;;8.07;5.60;;;6.00;99.90;;;;;;5054973;28;20188;-67
2023/12/09 05:34:31;;;;;;;8.57;6.03;;;6.00;99.90;;;;;;5050781;28;20217;-67
2023/12/09 05:36:57;;;;;;;6.33;4.60;;;6.00;99.90;;;;;;5050826;28;20933;-67
2023/12/09 05:39:22;;;;;;;10.33;5.67;;;6.00;99.90;;;;;;5051354;28;20638;-67
2023/12/09 05:41:48;;;;;;;7.47;5.60;;;6.00;99.90;;;;;;5050436;28;20268;-67
2023/12/09 05:44:13;;;;;;;8.70;4.83;;;6.00;99.90;;;;;;5055778;28;20260;-67
2023/12/09 05:46:40;;;;;;;9.73;5.67;;;6.00;99.90;;;;;;5051712;28;20366;-66
2023/12/09 05:49:05;;;;;;;8.67;4.80;;;6.00;99.90;;;;;;5051081;28;20170;-67
2023/12/09 05:51:31;;;;;;;6.93;5.10;;;5.90;99.90;;;;;;5056827;28;20423;-67
2023/12/09 05:53:56;;;;;;;11.80;5.40;;;5.90;99.90;;;;;;5051753;28;20202;-67
2023/12/09 05:56:22;;;;;;;6.27;4.73;;;5.90;99.90;;;;;;5060578;28;20197;-67
2023/12/09 05:58:48;;;;;;;11.00;5.53;;;5.80;99.90;;;;;;5058967;28;20173;-67
2023/12/09 06:01:13;;;;;;;6.87;5.37;;;5.90;99.90;;;;;;5062315;28;20177;-67
2023/12/09 06:03:39;;;;;;;7.40;5.70;;;5.90;99.90;;;;;;5064272;28;20242;-67
2023/12/09 06:06:05;;;;;;;5.33;4.83;;;5.90;99.90;;;;;;5054689;28;20705;-67
2023/12/09 06:08:31;;;;;;;5.73;4.90;;;5.90;99.90;;;;;;5059231;28;20272;-67
2023/12/09 06:10:57;;;;;;;7.20;4.80;;;5.80;99.90;;;;;;5056451;28;20912;-67
2023/12/09 06:13:23;;;;;;;5.73;5.07;;;5.80;99.90;;;;;;5061155;28;20463;-67
2023/12/09 06:15:48;;;;;;;8.07;6.73;;;5.80;99.90;;;;;;5059180;28;20500;-67
2023/12/09 06:18:14;;;;;;;7.90;5.80;;;5.80;99.90;;;;;;5050005;28;20539;-67
2023/12/09 06:20:39;;;;;;;7.73;5.77;;;5.80;99.90;;;;;;5053109;28;20177;-67
2023/12/09 06:23:05;;;;;;;7.90;5.20;;;5.80;99.90;;;;;;5063110;28;20177;-68
2023/12/09 06:25:31;;;;;;;9.80;4.47;;;5.80;99.90;;;;;;5058053;28;20220;-67
2023/12/09 06:27:56;;;;;;;5.50;5.00;;;5.80;99.90;;;;;;5060224;28;20174;-67
2023/12/09 06:30:22;;;;;;;8.23;5.73;;;5.80;99.90;;;;;;5058589;28;20184;-67
2023/12/09 06:32:47;;;;;;;7.80;5.00;;;5.80;99.90;;;;;;5068507;28;20181;-67
2023/12/09 06:35:13;;;;;;;7.30;5.00;;;5.80;99.90;;;;;;5056531;28;20209;-67
2023/12/09 06:37:38;;;;;;;5.03;4.57;;;5.80;99.90;;;;;;5058410;28;20220;-67
2023/12/09 06:40:04;;;;;;;6.13;3.70;;;5.90;99.90;;;;;;5048557;28;20197;-67
2023/12/09 06:42:30;;;;;;;9.77;4.73;;;5.90;99.90;;;;;;5052803;28;20182;-67
2023/12/09 06:44:56;;;;;;;9.20;5.10;;;5.90;99.90;;;;;;5057806;28;20457;-67
2023/12/09 06:47:21;;;;;;;6.10;5.60;;;5.90;99.90;;;;;;5057868;28;20443;-67
2023/12/09 06:49:47;;;;;;;6.30;4.03;;;5.90;99.90;;;;;;5053885;28;20174;-67
2023/12/09 06:52:13;;;;;;;5.37;4.33;;;5.90;99.90;;;;;;5062869;28;20722;-67
2023/12/09 06:54:38;;;;;;;8.90;6.03;;;5.90;99.90;;;;;;5052614;28;20292;-67
2023/12/09 06:57:04;;;;;;;6.90;4.20;;;5.90;99.90;;;;;;5064093;28;20174;-67
2023/12/09 06:59:29;;;;;;;6.40;3.60;;;6.00;99.90;;;;;;5058572;28;20911;-67
2023/12/09 07:01:58;;;;;;;8.70;4.07;;;6.00;99.90;;;;;;5054822;28;20186;-67
2023/12/09 07:04:24;;;;;;;5.03;4.57;;;6.00;99.90;;;;;;5059930;28;20216;-67
2023/12/09 07:06:49;;;;;;;5.63;3.90;;;6.00;99.90;;;;;;5059767;28;20459;-67
2023/12/09 07:09:15;;;;;;;4.17;3.77;;;5.90;99.90;;;;;;5061372;28;20678;-67
2023/12/09 07:11:40;;;;;;;5.93;4.03;;;5.90;99.90;;;;;;5065514;28;20671;-67
2023/12/09 07:14:06;;;;;;;10.30;4.87;;;5.90;99.90;;;;;;5049611;28;20190;-67
2023/12/09 07:16:31;;;;;;;5.50;4.87;;;5.90;99.90;;;;;;5059889;28;20193;-67
2023/12/09 07:19:00;;;;;;;7.37;3.97;;;5.90;99.90;;;;;;5049507;28;20199;-67
2023/12/09 07:21:27;;;;;;;9.70;4.23;;;5.90;99.90;;;;;;5053398;28;20189;-67
2023/12/09 07:23:53;;;;;;;4.53;4.10;;;5.90;99.90;;;;;;5055744;28;20440;-67
2023/12/09 07:26:18;;;;;;;5.83;3.33;;;5.90;99.90;;;;;;5052701;28;20463;-67
2023/12/09 07:28:47;;;;;;;6.00;4.00;;;6.00;99.90;;;;;;5059837;28;20186;-67
2023/12/09 07:31:14;;;;;;;4.63;3.40;;;6.00;99.90;;;;;;5064296;28;20184;-67
2023/12/09 07:33:39;;;;;;;4.80;3.43;;;6.00;99.90;;;;;;5057666;28;20470;-66
2023/12/09 07:36:05;;;;;;;6.40;3.40;;;6.10;99.90;;;;;;5054020;28;20455;-66
2023/12/09 07:38:31;;;;;;;6.13;3.60;;;6.10;99.90;;;;;;5060802;28;20169;-66
2023/12/09 07:40:57;;;;;;;5.67;3.93;;;6.10;99.90;;;;;;5053358;28;20173;-67
2023/12/09 07:43:22;;;;;;;6.60;4.00;;;6.10;99.90;;;;;;5051575;28;20810;-66
2023/12/09 07:45:47;;;;;;;5.57;3.67;;;6.10;99.90;;;;;;5055782;28;20193;-66
2023/12/09 07:48:13;;;;;;;7.83;4.00;;;6.10;99.90;;;;;;5061881;28;20264;-67
2023/12/09 07:50:38;;;;;;;6.20;4.33;;;6.10;99.90;;;;;;5051635;28;20235;-67
2023/12/09 07:53:04;;;;;;;6.33;3.63;;;6.20;99.90;;;;;;5055293;28;20234;-67
2023/12/09 07:55:30;;;;;;;7.23;3.70;;;6.20;99.90;;;;;;5062007;28;20213;-66
2023/12/09 07:57:56;;;;;;;7.80;3.70;;;6.20;99.90;;;;;;5070318;28;20161;-66
2023/12/09 08:00:21;;;;;;;7.23;4.27;;;6.20;99.90;;;;;;5060614;28;20173;-66
2023/12/09 08:02:47;;;;;;;6.10;3.20;;;6.20;99.90;;;;;;5055622;28;20557;-67
2023/12/09 08:05:12;;;;;;;4.53;3.77;;;6.20;99.90;;;;;;5052776;28;20310;-66
2023/12/09 08:07:38;;;;;;;6.57;4.20;;;6.20;99.90;;;;;;5054039;28;20664;-66
2023/12/09 08:10:04;;;;;;;5.23;3.73;;;6.20;99.90;;;;;;5061588;28;20651;-66
2023/12/09 08:12:31;;;;;;;4.47;3.03;;;6.20;99.90;;;;;;5053652;28;20260;-66
2023/12/09 08:14:57;;;;;;;6.47;3.40;;;6.20;99.90;;;;;;5044456;28;20464;-67
2023/12/09 08:17:22;;;;;;;6.70;3.73;;;6.30;99.90;;;;;;5046557;28;20868;-66
2023/12/09 08:19:48;;;;;;;4.60;3.40;;;6.30;99.90;;;;;;5063839;28;20181;-66
2023/12/09 08:22:13;;;;;;;6.67;4.07;;;6.30;99.90;;;;;;5058144;28;20197;-66
2023/12/09 08:24:40;;;;;;;6.13;3.43;;;6.30;99.90;;;;;;5051233;28;20201;-67
2023/12/09 08:27:05;;;;;;;5.10;3.93;;;6.40;99.90;;;;;;5056551;28;20181;-66
2023/12/09 08:29:31;;;;;;;4.73;4.07;;;6.40;99.90;;;;;;5055181;28;20929;-66
2023/12/09 08:31:57;;;;;;;5.97;3.50;;;6.50;99.90;;;;;;5060240;28;20290;-67
2023/12/09 08:34:23;;;;;;;7.03;3.30;;;6.70;99.90;;;;;;5052081;28;20240;-66
2023/12/09 08:36:48;;;;;;;7.63;4.33;;;6.70;99.90;;;;;;5064832;28;20169;-67
2023/12/09 08:39:15;;;;;;;5.03;3.63;;;6.80;99.90;;;;;;5052705;28;20215;-66
2023/12/09 08:41:40;;;;;;;7.30;3.47;;;6.80;99.90;;;;;;5051907;28;20178;-66
2023/12/09 08:44:06;;;;;;;7.67;3.67;;;6.70;99.90;;;;;;5055784;28;21296;-66
2023/12/09 08:46:32;;;;;;;3.87;2.90;;;6.70;99.90;;;;;;5059713;28;20211;-66
2023/12/09 08:48:57;;;;;;;5.23;3.40;;;6.70;99.90;;;;;;5052816;28;20876;-67
2023/12/09 08:51:23;;;;;;;4.43;3.60;;;6.80;99.90;;;;;;5060649;28;20181;-66
2023/12/09 08:53:50;;;;;;;5.30;3.50;;;6.90;99.90;;;;;;5052852;28;20191;-67
2023/12/09 08:56:15;;;;;;;7.77;3.37;;;7.00;99.90;;;;;;5035100;28;20542;-67
2023/12/09 08:58:41;;;;;;;6.10;4.90;;;7.10;99.90;;;;;;5045560;28;20905;-67
2023/12/09 09:01:06;;;;;;;4.83;3.40;;;7.10;99.90;;;;;;5053806;28;20174;-66
2023/12/09 09:03:32;;;;;;;6.83;3.67;;;7.10;99.90;;;;;;5058169;28;20165;-66
2023/12/09 09:05:58;;;;;;;10.43;5.20;;;7.10;99.90;;;;;;5047363;28;20599;-67
2023/12/09 09:08:23;;;;;;;10.17;5.60;;;7.20;99.90;;;;;;5050703;28;20178;-67
2023/12/09 09:10:49;;;;;;;10.70;6.20;;;7.20;99.90;;;;;;5061709;28;20212;-66
2023/12/09 09:13:15;;;;;;;4.53;3.30;;;7.30;99.90;;;;;;5067638;28;20209;-67
2023/12/09 09:15:40;;;;;;;6.93;4.50;;;7.30;99.90;;;;;;5051331;28;20227;-67
2023/12/09 09:18:06;;;;;;;5.37;3.57;;;7.30;99.90;;;;;;5064613;28;20172;-67
2023/12/09 09:20:32;;;;;;;5.60;3.77;;;7.30;99.90;;;;;;5063400;28;20165;-67
2023/12/09 09:22:58;;;;;;;3.77;3.20;;;7.40;99.90;;;;;;5052516;28;20412;-66
2023/12/09 09:25:23;;;;;;;6.20;3.03;;;7.50;99.90;;;;;;5048116;28;20233;-67
2023/12/09 09:27:49;;;;;;;6.80;3.40;;;7.50;99.90;;;;;;5058517;28;20185;-67
2023/12/09 09:30:14;;;;;;;5.10;3.40;;;7.50;99.90;;;;;;5054457;28;20251;-67
2023/12/09 09:32:40;;;;;;;5.87;2.80;;;7.60;99.90;;;;;;5056971;28;20550;-67
2023/12/09 09:35:06;;;;;;;3.00;2.00;;;7.50;99.90;;;;;;5051553;28;20209;-66
2023/12/09 09:37:32;;;;;;;4.87;2.60;;;7.30;99.90;;;;;;5058432;28;20416;-67
2023/12/09 09:39:57;;;;;;;4.60;2.93;;;7.20;99.90;;;;;;5054766;28;20432;-66
2023/12/09 09:42:40;;;;;;;6.53;3.07;;;7.20;99.90;;;;;;5062743;28;20180;-66
2023/12/09 09:45:14;;;;;;;5.20;3.03;;;7.20;99.90;;;;;;5050135;28;20201;-66
2023/12/09 09:47:42;;;;;;;3.10;2.80;;;7.30;99.90;;;;;;5055510;28;20445;-66
2023/12/09 09:50:08;;;;;;;3.53;3.20;;;7.10;99.90;;;;;;5054336;28;20440;-66
2023/12/09 09:52:40;;;;;;;6.10;3.80;;;7.00;99.90;;;;;;5058266;28;20427;-66
2023/12/09 09:55:07;;;;;;;6.27;3.60;;;7.10;99.90;;;;;;5047527;28;20965;-66
2023/12/09 09:57:37;;;;;;;4.13;3.47;;;7.10;99.90;;;;;;5067087;28;20455;-66
2023/12/09 10:00:12;;;;;;;7.70;3.13;;;7.20;99.90;;;;;;5053719;28;20936;-66
2023/12/09 10:02:45;;;;;;;2.80;2.60;;;7.40;99.90;;;;;;5058804;28;20470;-67
2023/12/09 10:05:12;;;;;;;3.40;2.60;;;7.30;99.90;;;;;;5053200;28;20523;-67
2023/12/09 10:07:39;;;;;;;3.50;3.20;;;7.20;99.90;;;;;;5050873;28;20435;-67
2023/12/09 10:10:06;;;;;;;7.10;3.53;;;7.20;99.90;;;;;;5051241;28;20804;-67
2023/12/09 10:12:32;;;;;;;5.47;3.50;;;7.20;99.90;;;;;;5063395;28;20419;-67
2023/12/09 10:14:59;;;;;;;3.60;2.67;;;7.30;99.90;;;;;;5055793;28;20526;-67
2023/12/09 10:17:25;;;;;;;4.80;3.00;;;7.50;99.90;;;;;;5058589;28;20181;-67
2023/12/09 10:19:50;;;;;;;5.00;2.60;;;7.60;99.90;;;;;;5053242;28;20948;-67
2023/12/09 10:22:16;;;;;;;3.23;2.80;;;7.60;99.90;;;;;;5054602;28;20751;-67
2023/12/09 10:24:49;;;;;;;7.30;3.27;;;7.50;99.90;;;;;;5064550;28;20283;-67
2023/12/09 10:27:15;;;;;;;6.20;2.97;;;7.40;99.90;;;;;;5041033;28;20181;-67
2023/12/09 10:29:41;;;;;;;3.90;2.90;;;7.40;99.90;;;;;;5057785;28;20515;-67
2023/12/09 10:32:06;;;;;;;5.43;3.23;;;7.30;99.90;;;;;;5059590;28;20268;-67
2023/12/09 10:34:32;;;;;;;3.90;3.00;;;7.50;99.90;;;;;;5053107;28;20889;-67
2023/12/09 10:36:57;;;;;;;2.77;2.57;;;7.50;99.90;;;;;;5051137;28;20260;-67
2023/12/09 10:39:23;;;;;;;4.33;2.77;;;7.60;99.90;;;;;;5058312;28;20243;-67
2023/12/09 10:41:48;;;;;;;4.93;2.63;;;7.70;99.90;;;;;;5058094;28;20184;-67
2023/12/09 10:44:16;;;;;;;4.50;3.50;;;7.90;99.90;;;;;;5056822;28;20174;-67
2023/12/09 10:46:41;;;;;;;3.53;2.70;;;8.00;99.90;;;;;;5051047;28;20646;-67
2023/12/09 10:49:07;;;;;;;3.10;2.80;;;8.10;99.90;;;;;;5050523;28;20447;-67
2023/12/09 10:51:32;;;;;;;3.17;2.70;;;8.10;99.90;;;;;;5053597;28;20196;-67
2023/12/09 10:53:58;;;;;;;3.93;3.37;;;8.20;99.90;;;;;;5062063;28;20249;-67
2023/12/09 10:56:23;;;;;;;5.83;3.50;;;8.20;99.90;;;;;;5047194;28;20205;-67
2023/12/09 10:58:51;;;;;;;6.60;3.43;;;8.20;99.90;;;;;;5056421;28;20181;-67
2023/12/09 11:01:18;;;;;;;7.73;4.30;;;8.10;99.90;;;;;;5050613;28;20185;-67
2023/12/09 11:03:43;;;;;;;3.60;2.33;;;8.20;99.90;;;;;;5055335;28;20423;-67
2023/12/09 11:06:11;;;;;;;3.87;2.73;;;8.40;99.90;;;;;;5058242;28;20474;-67
2023/12/09 11:08:38;;;;;;;5.90;2.30;;;8.70;99.90;;;;;;5058020;28;20170;-67
2023/12/09 11:11:05;;;;;;;3.73;3.20;;;8.90;99.90;;;;;;5055304;28;20426;-67
2023/12/09 11:13:33;;;;;;;5.07;2.70;;;9.20;99.90;;;;;;5059670;28;20502;-66
2023/12/09 11:16:10;;;;;;;2.70;2.50;;;9.30;99.90;;;;;;5056311;28;20475;-67
2023/12/09 11:18:36;;;;;;;4.50;2.67;;;9.40;99.90;;;;;;5059993;28;20432;-67
2023/12/09 11:21:02;;;;;;;3.67;2.80;;;9.70;99.90;;;;;;5055137;28;20430;-67
2023/12/09 11:23:28;;;;;;;4.63;2.70;;;9.70;99.90;;;;;;5061955;28;20173;-68
2023/12/09 11:25:53;;;;;;;3.93;3.17;;;9.60;99.90;;;;;;5061099;28;21043;-67
2023/12/09 11:28:20;;;;;;;3.20;2.90;;;9.40;99.90;;;;;;5059837;28;20204;-67
2023/12/09 11:30:45;;;;;;;3.77;3.20;;;9.10;99.90;;;;;;5053926;28;20189;-67
2023/12/09 11:33:11;;;;;;;7.17;3.03;;;8.80;99.90;;;;;;5052291;28;20557;-69
2023/12/09 11:35:37;;;;;;;7.53;3.13;;;8.50;99.90;;;;;;5058077;28;20194;-67
2023/12/09 11:38:08;;;;;;;5.50;3.43;;;8.20;99.90;;;;;;5058121;28;20672;-66
2023/12/09 11:40:34;;;;;;;3.47;3.20;;;8.10;99.90;;;;;;5054590;28;20539;-69
2023/12/09 11:43:03;;;;;;;3.30;3.00;;;8.10;99.90;;;;;;5057976;28;20518;-66
2023/12/09 11:45:29;;;;;;;3.07;2.83;;;8.10;99.90;;;;;;5061440;28;20197;-67
2023/12/09 11:47:54;;;;;;;4.10;3.13;;;8.10;99.90;;;;;;5055364;28;20424;-67
2023/12/09 11:50:20;;;;;;;4.80;3.53;;;8.00;99.90;;;;;;5050658;28;20177;-67
2023/12/09 11:52:47;;;;;;;4.20;3.60;;;8.10;99.90;;;;;;5055394;28;20546;-67
2023/12/09 11:55:16;;;;;;;5.53;3.97;;;8.10;99.90;;;;;;5062103;28;20212;-67
2023/12/09 11:57:42;;;;;;;4.47;3.40;;;8.20;99.90;;;;;;5058875;28;20435;-67
2023/12/09 12:00:14;;;;;;;3.90;3.40;;;8.20;99.90;;;;;;5053679;28;20455;-67
2023/12/09 12:02:42;;;;;;;5.80;4.37;;;8.30;99.90;;;;;;5056964;28;20436;-69
2023/12/09 12:05:09;;;;;;;3.93;3.63;;;8.50;99.90;;;;;;5062470;28;20467;-67
2023/12/09 12:07:35;;;;;;;5.43;3.60;;;8.40;99.90;;;;;;5073485;28;20415;-67
2023/12/09 12:10:01;;;;;;;5.67;3.70;;;8.50;99.90;;;;;;5061117;28;20522;-67
2023/12/09 12:12:27;;;;;;;6.17;3.70;;;8.40;99.90;;;;;;5058142;28;20439;-67
2023/12/09 12:14:53;;;;;;;4.70;3.90;;;8.40;99.90;;;;;;5060843;28;20485;-67
2023/12/09 12:17:18;;;;;;;3.70;3.40;;;8.30;99.90;;;;;;5053239;28;20265;-67
2023/12/09 12:19:44;;;;;;;7.00;3.80;;;8.30;99.90;;;;;;5055000;28;20177;-67
2023/12/09 12:22:09;;;;;;;7.67;3.37;;;8.20;99.90;;;;;;5052969;28;20185;-67
2023/12/09 12:24:42;;;;;;;4.63;3.33;;;8.30;99.90;;;;;;5060877;28;20206;-67
2023/12/09 12:27:08;;;;;;;5.50;4.23;;;8.30;99.90;;;;;;5054056;28;20190;-67
2023/12/09 12:29:33;;;;;;;3.57;3.27;;;8.20;99.90;;;;;;5067730;28;20551;-67
2023/12/09 12:31:59;;;;;;;3.90;3.37;;;8.20;99.90;;;;;;5044014;28;20532;-67
2023/12/09 12:34:26;;;;;;;3.57;3.20;;;8.20;99.90;;;;;;5052037;28;20565;-68
2023/12/09 12:36:51;;;;;;;4.30;3.80;;;8.20;99.90;;;;;;5055864;28;20436;-67
2023/12/09 12:39:17;;;;;;;4.57;3.40;;;8.30;99.90;;;;;;5064828;28;20437;-67
2023/12/09 12:41:44;;;;;;;3.90;3.40;;;8.60;99.90;;;;;;5053282;28;20185;-67
2023/12/09 12:44:11;;;;;;;6.90;3.37;;;9.40;99.90;;;;;;5061521;28;20231;-69
2023/12/09 12:46:36;;;;;;;5.13;4.03;;;10.70;99.90;;;;;;5052507;28;20499;-69